Time;durP1;ratioP1;P1;durP2;ratioP2;P2;SDS_P1;SDS_P2;PMS_P1;PMS_P2;Temp;Humidity;BMP_temperature;BMP_pressure;BME280_temperature;BME280_humidity;BME280_pressure;Samples;Min_cycle;Max_cycle;Signal;HPM_P1;HPM_P2
2022/04/04 00:02:00;;;;;;;20.77;17.23;;;2.60;49.20;;;;;;20609;6802;297918;-68
2022/04/04 00:04:25;;;;;;;14.53;10.97;;;2.60;48.70;;;;;;20841;6802;117375;-68
2022/04/04 00:06:51;;;;;;;15.77;14.17;;;2.50;48.80;;;;;;20623;6802;305353;-68
2022/04/04 00:09:16;;;;;;;13.47;12.17;;;2.60;48.60;;;;;;20844;6802;118052;-68
2022/04/04 00:11:42;;;;;;;14.73;13.10;;;2.50;48.70;;;;;;20842;6802;117217;-68
2022/04/04 00:14:08;;;;;;;28.80;20.07;;;2.30;49.30;;;;;;20822;6802;117856;-68
2022/04/04 00:16:33;;;;;;;25.53;18.37;;;2.00;49.80;;;;;;20846;6803;117549;-68
2022/04/04 00:19:00;;;;;;;21.03;18.87;;;1.80;50.30;;;;;;20631;6803;307435;-68
2022/04/04 00:21:24;;;;;;;17.05;15.65;;;2.00;50.60;;;;;;20625;6803;306725;-68
2022/04/04 00:23:53;;;;;;;16.23;14.33;;;2.30;50.60;;;;;;20830;6803;118368;-68
2022/04/04 00:26:19;;;;;;;12.57;11.47;;;2.30;50.40;;;;;;20817;6803;118656;-68
2022/04/04 00:28:44;;;;;;;14.37;13.27;;;2.10;50.90;;;;;;20636;6803;293570;-68
2022/04/04 00:31:10;;;;;;;12.60;11.50;;;2.10;51.30;;;;;;20827;6803;118524;-68
2022/04/04 00:33:36;;;;;;;13.20;12.07;;;2.10;51.30;;;;;;20632;6803;277223;-68
2022/04/04 00:36:02;;;;;;;12.87;11.67;;;2.50;49.70;;;;;;20616;6803;278070;-68
2022/04/04 00:38:28;;;;;;;11.87;9.97;;;2.50;49.70;;;;;;20843;6803;117819;-68
2022/04/04 00:40:53;;;;;;;13.53;12.43;;;2.40;49.60;;;;;;20636;6803;286305;-67
2022/04/04 00:43:19;;;;;;;13.50;12.50;;;2.40;49.50;;;;;;20628;6803;277574;-68
2022/04/04 00:45:45;;;;;;;11.70;10.43;;;2.60;48.70;;;;;;20837;6803;118795;-68
2022/04/04 00:48:11;;;;;;;11.47;10.33;;;2.20;49.50;;;;;;20819;6803;123199;-68
2022/04/04 00:50:36;;;;;;;11.03;10.10;;;2.10;49.40;;;;;;20851;6801;121229;-68
2022/04/04 00:53:03;;;;;;;11.88;10.68;;;1.70;50.70;;;;;;20851;6802;117876;-68
2022/04/04 00:55:28;;;;;;;14.53;13.43;;;1.70;50.70;;;;;;20636;6802;292148;-68
2022/04/04 00:57:54;;;;;;;15.20;13.90;;;1.80;51.50;;;;;;20632;6802;335979;-68
2022/04/04 01:00:20;;;;;;;12.40;11.30;;;2.10;50.40;;;;;;20829;6802;119022;-68
2022/04/04 01:02:45;;;;;;;14.70;13.50;;;2.00;50.20;;;;;;20632;6802;296105;-68
2022/04/04 01:05:10;;;;;;;13.03;11.93;;;2.10;50.40;;;;;;20844;6802;118013;-68
2022/04/04 01:07:36;;;;;;;11.60;10.43;;;2.00;50.40;;;;;;20846;6802;118508;-68
2022/04/04 01:10:02;;;;;;;15.10;13.90;;;1.70;50.80;;;;;;20569;6802;301380;-68
2022/04/04 01:12:27;;;;;;;12.43;11.43;;;1.70;51.10;;;;;;20837;6802;117595;-68
2022/04/04 01:14:53;;;;;;;11.57;10.53;;;1.70;51.10;;;;;;20843;6802;117298;-68
2022/04/04 01:17:19;;;;;;;11.07;10.07;;;1.30;52.00;;;;;;20842;6802;117751;-68
2022/04/04 01:19:45;;;;;;;10.50;9.60;;;1.30;52.00;;;;;;20837;6802;117435;-67
2022/04/04 01:22:10;;;;;;;11.40;10.37;;;1.20;52.50;;;;;;20817;6802;118447;-67
2022/04/04 01:24:37;;;;;;;14.83;13.53;;;1.10;53.00;;;;;;20627;6802;278295;-68
2022/04/04 01:27:01;;;;;;;15.90;14.50;;;1.30;53.10;;;;;;20621;6802;315442;-67
2022/04/04 01:29:27;;;;;;;14.20;12.50;;;1.70;52.20;;;;;;20844;6803;117533;-67
2022/04/04 01:31:52;;;;;;;16.25;14.85;;;1.70;51.80;;;;;;20627;6803;336486;-68
2022/04/04 01:34:21;;;;;;;12.07;11.07;;;1.80;51.70;;;;;;20832;6803;121207;-68
2022/04/04 01:36:47;;;;;;;15.27;14.07;;;1.70;51.60;;;;;;20626;6803;307675;-67
2022/04/04 01:39:13;;;;;;;15.30;14.10;;;2.00;51.00;;;;;;20623;6803;341425;-67
2022/04/04 01:41:38;;;;;;;13.07;11.97;;;2.00;51.00;;;;;;20846;6803;117590;-67
2022/04/04 01:44:04;;;;;;;11.80;10.70;;;1.90;50.80;;;;;;20828;6803;118414;-67
2022/04/04 01:46:30;;;;;;;14.93;13.62;;;1.70;51.50;;;;;;20631;6803;336964;-67
2022/04/04 01:48:59;;;;;;;11.87;10.87;;;1.70;51.50;;;;;;20843;6803;117616;-67
2022/04/04 01:51:25;;;;;;;14.32;13.13;;;1.60;51.30;;;;;;20623;6803;293741;-67
2022/04/04 01:53:50;;;;;;;12.27;11.20;;;1.70;51.30;;;;;;20835;6803;117475;-67
2022/04/04 01:56:16;;;;;;;11.27;10.17;;;1.60;51.20;;;;;;20821;6803;123709;-67
2022/04/04 01:58:42;;;;;;;11.27;10.27;;;1.40;51.60;;;;;;20840;6803;117546;-67
2022/04/04 02:01:10;;;;;;;10.80;9.90;;;1.20;52.20;;;;;;20840;6803;117419;-67
2022/04/04 02:03:36;;;;;;;14.52;13.32;;;1.10;52.70;;;;;;20626;6801;281236;-67
2022/04/04 02:06:02;;;;;;;14.63;13.50;;;1.20;52.70;;;;;;20607;6802;307502;-67
2022/04/04 02:08:27;;;;;;;14.55;13.32;;;1.60;51.90;;;;;;20625;6802;307127;-67
2022/04/04 02:10:53;;;;;;;11.77;10.77;;;1.90;51.10;;;;;;20849;6802;117643;-67
2022/04/04 02:13:19;;;;;;;11.77;10.60;;;1.50;51.30;;;;;;20850;6802;118946;-67
2022/04/04 02:15:44;;;;;;;10.43;9.50;;;1.50;51.30;;;;;;20848;6802;117618;-67
2022/04/04 02:18:11;;;;;;;13.33;12.23;;;1.40;51.90;;;;;;20609;6802;307412;-67
2022/04/04 02:20:36;;;;;;;13.60;12.40;;;1.40;51.80;;;;;;20633;6802;312793;-67
2022/04/04 02:23:03;;;;;;;12.65;11.63;;;2.00;49.70;;;;;;20636;6802;316043;-67
2022/04/04 02:25:28;;;;;;;12.67;11.77;;;2.00;49.70;;;;;;20640;6802;295926;-67
2022/04/04 02:27:54;;;;;;;10.63;9.73;;;2.10;49.40;;;;;;20844;6802;117576;-67
2022/04/04 02:30:20;;;;;;;11.53;10.67;;;2.00;48.90;;;;;;20611;6802;309151;-67
2022/04/04 02:32:45;;;;;;;10.85;9.70;;;2.00;48.80;;;;;;20845;6802;117794;-67
2022/04/04 02:35:11;;;;;;;12.75;11.85;;;1.90;49.20;;;;;;20629;6802;336555;-67
2022/04/04 02:37:37;;;;;;;11.18;10.13;;;1.90;49.20;;;;;;20848;6802;118407;-67
2022/04/04 02:40:04;;;;;;;14.17;13.07;;;1.80;50.00;;;;;;20618;6803;286207;-67
2022/04/04 02:42:29;;;;;;;14.20;13.07;;;2.10;49.50;;;;;;20625;6803;306615;-67
2022/04/04 02:44:54;;;;;;;13.90;12.90;;;2.00;49.10;;;;;;20633;6803;311453;-67
2022/04/04 02:47:20;;;;;;;14.25;13.13;;;2.30;48.70;;;;;;20634;6803;298859;-67
2022/04/04 02:49:45;;;;;;;11.47;10.57;;;2.40;48.30;;;;;;20849;6803;124380;-67
2022/04/04 02:52:11;;;;;;;13.93;12.82;;;2.20;48.60;;;;;;20613;6803;282188;-67
2022/04/04 02:54:36;;;;;;;11.87;10.77;;;2.10;48.80;;;;;;20850;6803;118718;-67
2022/04/04 02:57:02;;;;;;;14.45;13.10;;;2.00;49.10;;;;;;20630;6803;311540;-67
2022/04/04 02:59:28;;;;;;;11.40;10.23;;;2.00;49.40;;;;;;20848;6803;117559;-67
2022/04/04 03:01:53;;;;;;;10.53;9.50;;;1.90;49.40;;;;;;20829;6803;120600;-67
2022/04/04 03:04:19;;;;;;;13.52;12.32;;;1.70;50.00;;;;;;20604;6803;320912;-68
2022/04/04 03:06:44;;;;;;;11.18;10.27;;;1.70;49.90;;;;;;20848;6803;118902;-67
2022/04/04 03:09:10;;;;;;;13.10;12.20;;;1.60;49.70;;;;;;20624;6803;307521;-68
2022/04/04 03:11:36;;;;;;;11.40;10.47;;;1.70;49.50;;;;;;20847;6803;117418;-68
2022/04/04 03:14:02;;;;;;;13.53;12.37;;;1.60;49.40;;;;;;20611;6801;287995;-68
2022/04/04 03:16:27;;;;;;;13.27;12.10;;;1.60;49.30;;;;;;20629;6802;320697;-68
2022/04/04 03:18:54;;;;;;;11.38;10.48;;;1.80;48.70;;;;;;20848;6802;119362;-68
2022/04/04 03:21:18;;;;;;;10.60;9.63;;;1.70;48.70;;;;;;20850;6802;118251;-68
2022/04/04 03:23:45;;;;;;;9.90;9.10;;;1.00;50.00;;;;;;20850;6802;117191;-68
2022/04/04 03:26:10;;;;;;;12.23;11.13;;;1.00;49.80;;;;;;20606;6802;293350;-68
2022/04/04 03:28:36;;;;;;;12.40;11.50;;;1.10;50.30;;;;;;20629;6802;306670;-68
2022/04/04 03:31:04;;;;;;;9.60;8.87;;;1.30;49.30;;;;;;20840;6802;119305;-68
2022/04/04 03:33:28;;;;;;;12.15;10.95;;;1.30;49.30;;;;;;20624;6802;278591;-67
2022/04/04 03:35:53;;;;;;;11.55;10.73;;;1.30;49.20;;;;;;20627;6802;341495;-67
2022/04/04 03:38:19;;;;;;;9.63;8.83;;;1.60;48.60;;;;;;20825;6802;118236;-67
2022/04/04 03:40:44;;;;;;;11.15;10.35;;;1.40;48.50;;;;;;20629;6802;307546;-67
2022/04/04 03:43:10;;;;;;;9.87;9.07;;;1.50;48.70;;;;;;20836;6802;119413;-67
2022/04/04 03:45:35;;;;;;;9.30;8.53;;;1.30;48.70;;;;;;20838;6802;117061;-67
2022/04/04 03:48:01;;;;;;;11.00;10.17;;;1.10;49.30;;;;;;20586;6802;323100;-68
2022/04/04 03:50:27;;;;;;;11.18;10.32;;;1.10;49.30;;;;;;20632;6802;285588;-68
2022/04/04 03:52:53;;;;;;;10.80;10.00;;;1.30;48.50;;;;;;20621;6803;309823;-67
2022/04/04 03:55:22;;;;;;;8.90;8.17;;;1.50;47.70;;;;;;20836;6803;117743;-68
2022/04/04 03:57:48;;;;;;;10.47;9.60;;;1.40;47.80;;;;;;20628;6803;307107;-68
2022/04/04 04:00:14;;;;;;;10.20;9.40;;;1.50;47.20;;;;;;20613;6803;278412;-68
2022/04/04 04:02:40;;;;;;;10.10;9.40;;;1.50;47.50;;;;;;20639;6803;278030;-68
2022/04/04 04:05:06;;;;;;;8.55;7.85;;;1.70;46.70;;;;;;20838;6803;117102;-68
2022/04/04 04:07:31;;;;;;;8.43;7.80;;;1.50;46.90;;;;;;20844;6803;117040;-68
2022/04/04 04:09:57;;;;;;;8.30;7.70;;;1.10;47.60;;;;;;20847;6803;116964;-68
2022/04/04 04:12:23;;;;;;;10.37;9.60;;;0.90;48.40;;;;;;20612;6803;281276;-68
2022/04/04 04:14:51;;;;;;;9.97;9.27;;;0.80;48.30;;;;;;20630;6803;307105;-68
2022/04/04 04:17:16;;;;;;;10.73;9.83;;;1.30;47.40;;;;;;20614;6803;325976;-68
2022/04/04 04:22:26;;;;;;;8.20;7.50;;;1.20;47.40;;;;;;20837;6803;117945;-71
2022/04/04 04:24:52;;;;;;;11.32;10.43;;;0.80;48.00;;;;;;20626;6801;336556;-72
2022/04/04 04:27:17;;;;;;;8.93;8.23;;;0.80;48.30;;;;;;20839;6802;117768;-73
2022/04/04 04:29:43;;;;;;;11.43;10.63;;;0.80;48.50;;;;;;20631;6802;280641;-72
2022/04/04 04:32:08;;;;;;;11.18;10.27;;;0.80;48.40;;;;;;20605;6802;282610;-72
2022/04/04 04:34:34;;;;;;;11.40;10.60;;;1.10;48.60;;;;;;20629;6802;306583;-75
2022/04/04 04:36:59;;;;;;;11.10;10.40;;;1.30;47.10;;;;;;20626;6802;312486;-70
2022/04/04 04:39:25;;;;;;;9.80;9.00;;;1.40;46.60;;;;;;20834;6802;117394;-71
2022/04/04 04:41:51;;;;;;;8.45;7.80;;;0.90;47.70;;;;;;20845;6802;121280;-72
2022/04/04 04:44:17;;;;;;;9.43;8.53;;;0.90;47.60;;;;;;20816;6802;117260;-71
2022/04/04 04:46:44;;;;;;;9.27;7.93;;;0.40;49.00;;;;;;20845;6802;122726;-79
2022/04/04 04:49:10;;;;;;;8.30;7.70;;;0.40;48.90;;;;;;20836;6802;116955;-71
2022/04/04 04:51:36;;;;;;;9.07;8.17;;;0.10;50.00;;;;;;20846;6802;117499;-71
2022/04/04 04:54:02;;;;;;;8.53;7.73;;;0.10;50.00;;;;;;20831;6802;117118;-74
2022/04/04 04:56:27;;;;;;;11.53;10.63;;;0.00;50.40;;;;;;20624;6802;307031;-71
2022/04/04 04:58:53;;;;;;;11.97;11.07;;;0.10;50.30;;;;;;20633;6802;281635;-70
2022/04/04 05:01:20;;;;;;;11.97;10.97;;;0.50;49.40;;;;;;20626;6802;277285;-71
2022/04/04 05:03:44;;;;;;;11.63;10.77;;;0.80;48.30;;;;;;20624;6803;305118;-72
2022/04/04 05:06:09;;;;;;;9.68;8.98;;;1.00;47.60;;;;;;20823;6803;117814;-70
2022/04/04 05:08:36;;;;;;;10.17;9.23;;;0.60;48.40;;;;;;20840;6803;117579;-70
2022/04/04 05:11:02;;;;;;;9.80;8.90;;;0.60;48.40;;;;;;20842;6803;117574;-70
2022/04/04 05:13:27;;;;;;;12.48;11.50;;;0.40;49.10;;;;;;20622;6803;307348;-72
2022/04/04 05:15:54;;;;;;;10.63;9.77;;;0.40;49.30;;;;;;20846;6803;117322;-66
2022/04/04 05:18:18;;;;;;;10.70;9.70;;;0.40;49.20;;;;;;20814;6803;117361;-71
2022/04/04 05:20:43;;;;;;;11.80;10.90;;;0.20;49.60;;;;;;20624;6803;311982;-76
2022/04/04 05:23:09;;;;;;;10.23;9.30;;;0.30;49.50;;;;;;20831;6803;117928;-72
2022/04/04 05:25:35;;;;;;;9.20;8.33;;;0.40;49.50;;;;;;20820;6803;123352;-71
2022/04/04 05:28:00;;;;;;;8.80;8.10;;;0.20;49.90;;;;;;20823;6803;125077;-67
2022/04/04 05:30:26;;;;;;;9.00;8.20;;;0.10;50.40;;;;;;20838;6803;117164;-70
2022/04/04 05:32:51;;;;;;;11.70;10.70;;;0.00;50.80;;;;;;20630;6803;336008;-71
2022/04/04 05:35:19;;;;;;;9.70;8.85;;;0.10;50.40;;;;;;20845;6803;117398;-70
2022/04/04 05:37:42;;;;;;;13.05;11.90;;;0.20;50.20;;;;;;20621;6801;333022;-70
2022/04/04 05:40:09;;;;;;;10.63;9.77;;;0.40;49.70;;;;;;20824;6802;117301;-70
2022/04/04 05:42:34;;;;;;;12.47;11.47;;;0.40;49.70;;;;;;20623;6802;277617;-69
2022/04/04 05:45:00;;;;;;;10.32;9.43;;;0.50;49.40;;;;;;20843;6802;117228;-74
2022/04/04 05:47:26;;;;;;;12.57;11.57;;;0.50;49.40;;;;;;20623;6802;349035;-71
2022/04/04 05:49:51;;;;;;;10.93;9.93;;;0.60;49.20;;;;;;20841;6802;117326;-69
2022/04/04 05:52:17;;;;;;;13.68;12.50;;;0.70;49.20;;;;;;20604;6802;306663;-70
2022/04/04 05:55:01;;;;;;;13.70;12.60;;;0.70;49.20;;;;;;20618;6802;307518;-74
2022/04/04 05:57:25;;;;;;;10.67;9.73;;;1.00;48.70;;;;;;20829;6802;117296;-74
2022/04/04 05:59:52;;;;;;;10.52;9.40;;;0.90;48.70;;;;;;20837;6802;124460;-79
2022/04/04 06:02:19;;;;;;;13.80;12.60;;;0.70;49.30;;;;;;20605;6802;278798;-76
2022/04/04 06:04:43;;;;;;;14.00;12.80;;;0.80;49.70;;;;;;20621;6802;277187;-70
2022/04/04 06:07:09;;;;;;;11.47;10.47;;;1.00;49.10;;;;;;20824;6802;117994;-70
2022/04/04 06:09:34;;;;;;;10.23;9.33;;;1.00;49.20;;;;;;20816;6802;117895;-71
2022/04/04 06:12:00;;;;;;;13.50;12.40;;;0.90;50.10;;;;;;20602;6802;307141;-68
2022/04/04 06:14:25;;;;;;;10.73;9.73;;;1.00;50.30;;;;;;20835;6803;123130;-69
2022/04/04 06:16:51;;;;;;;14.03;12.93;;;1.50;50.50;;;;;;20611;6803;307058;-68
2022/04/04 06:19:17;;;;;;;14.27;13.07;;;1.40;50.40;;;;;;20621;6803;307944;-68
2022/04/04 06:21:43;;;;;;;13.93;12.82;;;1.90;49.60;;;;;;20621;6803;277607;-68
2022/04/04 06:24:10;;;;;;;10.83;10.03;;;2.50;49.50;;;;;;20809;6803;117401;-68
2022/04/04 06:26:35;;;;;;;13.67;12.57;;;2.50;49.40;;;;;;20626;6803;278035;-69
2022/04/04 06:29:00;;;;;;;13.95;12.75;;;2.60;49.30;;;;;;20619;6803;337152;-68
2022/04/04 06:31:26;;;;;;;10.52;9.68;;;3.00;48.60;;;;;;20836;6803;117746;-68
2022/04/04 06:33:51;;;;;;;10.10;9.10;;;3.00;48.90;;;;;;20852;6803;117259;-68
2022/04/04 06:36:17;;;;;;;12.43;11.50;;;3.00;48.80;;;;;;20608;6803;336547;-68
2022/04/04 06:38:43;;;;;;;12.57;11.67;;;3.00;48.90;;;;;;20627;6803;284179;-68
2022/04/04 06:41:11;;;;;;;13.40;12.30;;;3.60;46.90;;;;;;20631;6803;278065;-68
2022/04/04 06:43:35;;;;;;;11.27;10.27;;;3.50;46.80;;;;;;20837;6803;117415;-71
2022/04/04 06:46:00;;;;;;;10.27;9.37;;;3.50;47.30;;;;;;20826;6803;124118;-68
2022/04/04 06:48:27;;;;;;;12.30;11.40;;;3.50;47.90;;;;;;20626;6801;317202;-70
2022/04/04 06:50:52;;;;;;;11.90;11.00;;;3.40;47.80;;;;;;20631;6802;311133;-69
2022/04/04 06:53:21;;;;;;;10.47;9.67;;;3.70;46.90;;;;;;20843;6802;117296;-71
2022/04/04 06:55:44;;;;;;;13.43;10.97;;;3.80;47.20;;;;;;20822;6802;117083;-69
2022/04/04 06:58:09;;;;;;;11.73;10.93;;;3.60;47.60;;;;;;20605;6802;308353;-69
2022/04/04 07:00:35;;;;;;;10.80;9.83;;;3.70;47.00;;;;;;20840;6802;118679;-75
2022/04/04 07:03:01;;;;;;;10.50;9.60;;;3.80;47.30;;;;;;20842;6802;117618;-69
2022/04/04 07:05:26;;;;;;;10.67;9.77;;;3.80;47.90;;;;;;20839;6802;117598;-67
2022/04/04 07:07:53;;;;;;;12.53;11.63;;;4.00;47.60;;;;;;20624;6802;336588;-68
2022/04/04 07:10:18;;;;;;;13.60;12.40;;;4.00;47.40;;;;;;20602;6802;432071;-69
2022/04/04 07:12:44;;;;;;;13.33;12.33;;;4.40;46.50;;;;;;20615;6802;311092;-72
2022/04/04 07:15:10;;;;;;;12.87;11.87;;;4.90;45.70;;;;;;20616;6802;307291;-71
2022/04/04 07:17:35;;;;;;;19.33;17.73;;;5.20;44.50;;;;;;20628;6802;311740;-69
2022/04/04 07:20:00;;;;;;;19.80;14.20;;;5.60;44.00;;;;;;20831;6802;127252;-74
2022/04/04 07:22:26;;;;;;;18.33;16.37;;;5.60;44.60;;;;;;20630;6802;341121;-72
2022/04/04 07:24:52;;;;;;;13.27;12.10;;;5.70;43.70;;;;;;20634;6802;315562;-69
2022/04/04 07:27:17;;;;;;;10.65;9.75;;;5.90;42.90;;;;;;20845;6803;117386;-69
2022/04/04 07:29:43;;;;;;;11.23;10.43;;;6.00;43.60;;;;;;20642;6803;277623;-71
2022/04/04 07:32:09;;;;;;;12.32;11.32;;;6.10;43.00;;;;;;20606;6803;306641;-68
2022/04/04 07:34:34;;;;;;;12.60;11.70;;;6.30;41.90;;;;;;20634;6803;277804;-69
2022/04/04 07:37:00;;;;;;;11.20;10.40;;;6.60;42.10;;;;;;20624;6803;307434;-68
2022/04/04 07:39:25;;;;;;;9.83;9.13;;;6.90;41.50;;;;;;20836;6803;117428;-69
2022/04/04 07:41:51;;;;;;;11.40;10.57;;;6.90;42.30;;;;;;20629;6803;307816;-70
2022/04/04 07:44:16;;;;;;;10.97;10.07;;;6.90;41.70;;;;;;20600;6803;311030;-69
2022/04/04 07:46:42;;;;;;;9.40;8.70;;;7.20;41.10;;;;;;20839;6803;117755;-70
2022/04/04 07:49:07;;;;;;;10.48;9.77;;;7.20;41.80;;;;;;20633;6803;278492;-72
2022/04/04 07:51:33;;;;;;;10.70;10.03;;;7.30;40.70;;;;;;20620;6803;312786;-72
2022/04/04 07:53:58;;;;;;;10.73;9.93;;;7.50;39.80;;;;;;20631;6803;282310;-69
2022/04/04 07:56:24;;;;;;;10.10;9.38;;;7.70;39.30;;;;;;20609;6803;333280;-69
2022/04/04 07:58:49;;;;;;;10.33;9.43;;;7.90;39.30;;;;;;20632;6803;278428;-71
2022/04/04 08:01:17;;;;;;;9.25;8.45;;;8.10;39.60;;;;;;20840;6800;116948;-69
2022/04/04 08:03:42;;;;;;;9.20;8.50;;;8.10;40.50;;;;;;20848;6802;116919;-71
2022/04/04 08:06:08;;;;;;;9.18;8.52;;;7.90;41.60;;;;;;20826;6802;117494;-68
2022/04/04 08:08:34;;;;;;;12.73;9.50;;;7.80;41.40;;;;;;20636;6802;277530;-68
2022/04/04 08:11:02;;;;;;;8.97;8.33;;;7.80;41.40;;;;;;20850;6802;120208;-70
2022/04/04 08:13:26;;;;;;;9.60;8.97;;;8.00;40.40;;;;;;20631;6802;299730;-68
2022/04/04 08:15:52;;;;;;;9.90;9.17;;;8.00;40.40;;;;;;20634;6802;307401;-69
2022/04/04 08:18:17;;;;;;;8.67;8.17;;;8.30;39.20;;;;;;20821;6802;122802;-71
2022/04/04 08:20:43;;;;;;;9.15;8.35;;;8.40;40.40;;;;;;20836;6802;121056;-69
2022/04/04 08:23:08;;;;;;;8.68;7.90;;;8.20;41.20;;;;;;20838;6802;117074;-69
2022/04/04 08:25:34;;;;;;;7.75;7.22;;;8.10;41.80;;;;;;20847;6802;117030;-70
2022/04/04 08:28:00;;;;;;;8.47;7.80;;;7.90;42.60;;;;;;20846;6802;117013;-69
2022/04/04 08:30:26;;;;;;;9.18;8.48;;;7.90;42.60;;;;;;20631;6802;277650;-70
2022/04/04 08:32:51;;;;;;;9.63;8.87;;;8.20;40.90;;;;;;20636;6802;307520;-69
2022/04/04 08:35:17;;;;;;;9.25;8.48;;;8.60;39.10;;;;;;20624;6802;308315;-70
2022/04/04 08:37:43;;;;;;;9.30;8.50;;;8.90;38.30;;;;;;20629;6803;293405;-69
2022/04/04 08:40:09;;;;;;;8.60;7.70;;;9.20;37.80;;;;;;20836;6803;118671;-72
2022/04/04 08:42:35;;;;;;;8.33;7.63;;;9.20;39.00;;;;;;20851;6803;118412;-69
2022/04/04 08:44:59;;;;;;;8.33;7.63;;;9.10;40.20;;;;;;20856;6803;120754;-69
2022/04/04 08:47:25;;;;;;;8.30;7.70;;;8.90;41.10;;;;;;20846;6803;120477;-68
2022/04/04 08:49:52;;;;;;;8.57;7.77;;;8.90;41.10;;;;;;20848;6803;116989;-70
2022/04/04 08:52:17;;;;;;;8.95;8.25;;;8.80;41.40;;;;;;20605;6803;311422;-71
2022/04/04 08:54:42;;;;;;;8.27;7.67;;;9.00;38.40;;;;;;20844;6803;117218;-71
2022/04/04 08:57:08;;;;;;;9.18;8.38;;;9.00;40.40;;;;;;20827;6803;117061;-69
2022/04/04 08:59:34;;;;;;;8.60;8.00;;;9.00;40.40;;;;;;20845;6803;117003;-70
2022/04/04 09:02:00;;;;;;;7.83;7.20;;;9.00;41.10;;;;;;20634;6803;295677;-71
2022/04/04 09:04:25;;;;;;;7.65;7.15;;;9.20;39.10;;;;;;20469;6803;336550;-72
2022/04/04 09:06:54;;;;;;;6.40;5.90;;;9.60;36.60;;;;;;20850;6803;117093;-69
2022/04/04 09:09:19;;;;;;;7.00;6.50;;;9.70;37.70;;;;;;20623;6803;333802;-70
2022/04/04 09:12:08;;;;;;;6.18;5.72;;;10.00;36.60;;;;;;20846;6801;124303;-71
2022/04/04 09:14:34;;;;;;;8.27;7.57;;;9.90;37.50;;;;;;20635;6802;307442;-71
2022/04/04 09:16:59;;;;;;;7.12;6.62;;;10.10;34.80;;;;;;20609;6802;277604;-70
2022/04/04 09:19:29;;;;;;;6.93;6.43;;;10.40;33.80;;;;;;20638;6802;311938;-70
2022/04/04 09:21:55;;;;;;;6.70;6.30;;;11.00;31.40;;;;;;20628;6802;306601;-72
2022/04/04 09:24:20;;;;;;;5.87;5.37;;;10.90;31.30;;;;;;20825;6802;117263;-70
2022/04/04 09:26:46;;;;;;;5.90;5.50;;;10.90;32.80;;;;;;20846;6802;117671;-70
2022/04/04 09:29:19;;;;;;;6.70;6.30;;;10.70;33.60;;;;;;20634;6802;296075;-71
2022/04/04 09:31:54;;;;;;;6.33;5.93;;;10.70;31.50;;;;;;20838;6802;117137;-70
2022/04/04 09:34:19;;;;;;;6.03;5.62;;;10.60;32.70;;;;;;20605;6802;312338;-70
2022/04/04 09:36:46;;;;;;;6.03;5.73;;;10.60;32.50;;;;;;20839;6802;117357;-69
2022/04/04 09:39:11;;;;;;;5.60;5.20;;;10.60;32.50;;;;;;20624;6802;306907;-70
2022/04/04 09:41:38;;;;;;;5.35;4.85;;;10.70;29.60;;;;;;20615;6802;311399;-71
2022/04/04 09:44:03;;;;;;;5.10;4.80;;;10.90;31.60;;;;;;20822;6802;117711;-70
2022/04/04 09:46:36;;;;;;;5.22;4.82;;;10.90;33.30;;;;;;20841;6802;117718;-70
2022/04/04 09:49:13;;;;;;;4.95;4.75;;;10.90;33.30;;;;;;20640;6803;306576;-75
2022/04/04 09:51:41;;;;;;;4.70;4.50;;;11.00;32.50;;;;;;20629;6803;278292;-74
2022/04/04 09:54:07;;;;;;;5.50;5.20;;;11.70;30.80;;;;;;20614;6803;324862;-70
2022/04/04 09:56:32;;;;;;;4.68;4.37;;;11.70;30.80;;;;;;20617;6803;307011;-71
2022/04/04 09:58:58;;;;;;;4.73;4.53;;;11.90;30.20;;;;;;20635;6803;307840;-71
2022/04/04 10:01:24;;;;;;;4.93;4.70;;;12.20;29.40;;;;;;20622;6803;323137;-70
2022/04/04 10:03:51;;;;;;;4.77;4.50;;;12.30;27.70;;;;;;20631;6803;280162;-69
2022/04/04 10:06:15;;;;;;;4.95;4.65;;;12.40;29.50;;;;;;20597;6803;311584;-70
2022/04/04 10:08:40;;;;;;;5.00;4.70;;;12.60;29.50;;;;;;20840;6803;117415;-73
2022/04/04 10:11:09;;;;;;;4.33;4.07;;;12.40;30.30;;;;;;20846;6803;117236;-74
2022/04/04 10:13:34;;;;;;;4.80;4.50;;;12.20;31.00;;;;;;20643;6803;278128;-71
2022/04/04 10:16:00;;;;;;;5.47;5.18;;;12.10;28.90;;;;;;20627;6803;279992;-70
2022/04/04 10:18:25;;;;;;;4.93;4.70;;;12.30;28.40;;;;;;20854;6803;117331;-70
2022/04/04 10:20:54;;;;;;;5.60;5.30;;;12.10;29.70;;;;;;20636;6803;287173;-69
2022/04/04 10:23:17;;;;;;;5.97;5.67;;;12.00;29.60;;;;;;20613;6801;277008;-69
2022/04/04 10:25:43;;;;;;;5.80;5.50;;;12.20;29.20;;;;;;20621;6802;336959;-71
2022/04/04 10:28:09;;;;;;;4.93;4.63;;;12.40;29.60;;;;;;20823;6802;117261;-70
2022/04/04 10:30:40;;;;;;;5.37;5.07;;;12.30;30.00;;;;;;20624;6802;340905;-70
2022/04/04 10:33:03;;;;;;;5.30;5.00;;;12.30;29.90;;;;;;20630;6802;307394;-69
2022/04/04 10:35:28;;;;;;;5.53;5.23;;;12.40;29.20;;;;;;20623;6802;307276;-70
2022/04/04 10:37:53;;;;;;;5.40;5.10;;;12.50;29.70;;;;;;20631;6802;286905;-69
2022/04/04 10:40:19;;;;;;;5.47;5.17;;;12.60;29.20;;;;;;20575;6802;322990;-69
2022/04/04 10:42:46;;;;;;;5.50;5.20;;;12.70;29.40;;;;;;20629;6802;307027;-70
2022/04/04 10:45:10;;;;;;;5.93;5.60;;;12.80;29.10;;;;;;20623;6802;336159;-71
2022/04/04 10:47:39;;;;;;;5.53;5.03;;;13.00;28.80;;;;;;20824;6802;117217;-70
2022/04/04 10:50:24;;;;;;;6.00;5.60;;;12.90;30.00;;;;;;20608;6802;277668;-71
2022/04/04 10:52:50;;;;;;;5.90;5.50;;;12.90;29.00;;;;;;20624;6802;318007;-71
2022/04/04 10:55:49;;;;;;;5.22;4.93;;;13.00;28.90;;;;;;20841;6802;117150;-71
2022/04/04 10:58:19;;;;;;;5.77;5.47;;;12.80;30.00;;;;;;20812;6802;117229;-73
2022/04/04 11:01:04;;;;;;;5.50;5.20;;;12.50;30.90;;;;;;20820;6803;120833;-73
2022/04/04 11:03:33;;;;;;;5.63;5.20;;;12.10;31.50;;;;;;20839;6803;117263;-73
2022/04/04 11:09:04;;;;;;;5.70;5.30;;;12.10;29.70;;;;;;20846;6803;117410;-73
2022/04/04 11:11:50;;;;;;;6.22;5.82;;;12.00;30.50;;;;;;20624;6803;307067;-71
2022/04/04 11:14:28;;;;;;;6.10;5.70;;;12.00;29.70;;;;;;20605;6803;301130;-73
2022/04/04 11:17:31;;;;;;;5.03;4.73;;;12.30;29.10;;;;;;20844;6803;119698;-69
2022/04/04 11:19:46;;;;;;;5.30;5.00;;;12.10;28.50;;;;;;20490;6803;311067;-69
2022/04/04 11:22:15;;;;;;;5.33;5.03;;;12.10;28.40;;;;;;20813;6803;117673;-69
2022/04/04 11:24:40;;;;;;;5.47;5.03;;;12.00;29.70;;;;;;20842;6803;117413;-71
2022/04/04 11:27:07;;;;;;;5.33;5.03;;;11.70;29.80;;;;;;20632;6803;291600;-72
2022/04/04 11:29:32;;;;;;;4.90;4.60;;;11.60;29.70;;;;;;20845;6803;117248;-73
2022/04/04 11:31:59;;;;;;;5.60;5.20;;;11.60;30.10;;;;;;20636;6803;278765;-72
2022/04/04 11:34:27;;;;;;;5.40;5.00;;;11.70;29.10;;;;;;20830;6801;117549;-70
2022/04/04 11:36:50;;;;;;;5.13;4.83;;;11.70;30.40;;;;;;20834;6802;117204;-71
2022/04/04 11:39:15;;;;;;;5.70;5.30;;;11.50;31.40;;;;;;20635;6802;277062;-74
2022/04/04 11:41:46;;;;;;;5.20;4.83;;;11.60;29.40;;;;;;20839;6802;122992;-68
2022/04/04 11:44:06;;;;;;;6.17;5.77;;;11.60;30.10;;;;;;20599;6802;281091;-68
2022/04/04 11:46:32;;;;;;;5.47;5.10;;;11.40;29.70;;;;;;20826;6802;117393;-68
2022/04/04 11:48:59;;;;;;;5.63;5.33;;;11.40;29.70;;;;;;20625;6802;306639;-69
2022/04/04 11:51:26;;;;;;;6.45;5.20;;;11.40;28.90;;;;;;20817;6802;120749;-70
2022/04/04 11:54:02;;;;;;;5.13;4.77;;;11.20;29.90;;;;;;20796;6802;117089;-68
2022/04/04 11:56:27;;;;;;;4.70;4.40;;;11.00;30.90;;;;;;20808;6802;117286;-69
2022/04/04 11:58:54;;;;;;;5.07;4.67;;;10.80;31.80;;;;;;20844;6802;117538;-69
2022/04/04 12:01:18;;;;;;;5.67;5.23;;;10.70;32.70;;;;;;20814;6802;121324;-69
2022/04/04 12:03:49;;;;;;;5.77;5.37;;;10.60;33.00;;;;;;20631;6802;307382;-70
2022/04/04 12:06:10;;;;;;;5.72;5.40;;;11.10;30.30;;;;;;20579;6802;307325;-69
2022/04/04 12:08:42;;;;;;;5.78;5.43;;;11.10;30.80;;;;;;20628;6802;336424;-68
2022/04/04 12:11:02;;;;;;;4.80;4.50;;;11.40;29.10;;;;;;20828;6802;118152;-68
2022/04/04 12:13:27;;;;;;;5.17;4.87;;;11.40;30.90;;;;;;20843;6803;117249;-73
2022/04/04 12:15:53;;;;;;;6.57;5.93;;;11.20;31.50;;;;;;20636;6803;329263;-72
2022/04/04 12:18:22;;;;;;;5.90;5.60;;;11.40;31.50;;;;;;20811;6803;117335;-71
2022/04/04 12:20:47;;;;;;;5.65;5.35;;;11.40;32.20;;;;;;20611;6803;277717;-71
2022/04/04 12:26:08;;;;;;;5.50;5.00;;;11.50;31.70;;;;;;20830;6803;117664;-74
2022/04/04 12:28:34;;;;;;;5.50;5.10;;;11.40;30.80;;;;;;20844;6803;117443;-72
2022/04/04 12:31:09;;;;;;;5.27;4.87;;;11.20;32.40;;;;;;20834;6803;117455;-72
2022/04/04 12:33:35;;;;;;;5.97;5.68;;;11.10;32.60;;;;;;20626;6803;306561;-79
2022/04/04 12:36:01;;;;;;;5.13;4.73;;;11.20;29.80;;;;;;20829;6803;118005;-74
2022/04/04 12:38:29;;;;;;;5.70;5.30;;;11.10;30.90;;;;;;20838;6803;117346;-74